createdAt,value
2023-04-27T00:01:42.220Z,100260.84
2023-04-27T00:04:09.177Z,100258.20
2023-04-27T00:06:36.125Z,100256.39
2023-04-27T00:09:03.903Z,100257.51
2023-04-27T00:11:31.039Z,100257.04
2023-04-27T00:13:57.782Z,100256.01
2023-04-27T00:16:24.562Z,100258.80
2023-04-27T00:18:52.270Z,100259.02
2023-04-27T00:21:18.910Z,100255.14
2023-04-27T00:23:45.858Z,100254.43
2023-04-27T00:26:12.386Z,100260.25
2023-04-27T00:28:39.278Z,100263.75
2023-04-27T00:31:06.001Z,100260.23
2023-04-27T00:33:32.667Z,100260.73
2023-04-27T00:36:01.349Z,100260.71
2023-04-27T00:38:29.486Z,100263.41
2023-04-27T00:41:03.813Z,100268.30
2023-04-27T00:43:30.613Z,100270.49
2023-04-27T00:45:58.124Z,100270.49
2023-04-27T00:48:25.548Z,100270.39
2023-04-27T00:50:52.750Z,100272.41
2023-04-27T00:53:19.959Z,100277.84
2023-04-27T00:55:47.230Z,100280.95
2023-04-27T00:58:13.819Z,100277.23
2023-04-27T01:00:41.007Z,100280.77
2023-04-27T01:03:08.374Z,100282.10
2023-04-27T01:05:37.953Z,100283.98
2023-04-27T01:08:05.505Z,100286.08
2023-04-27T01:10:32.125Z,100288.75
2023-04-27T01:12:58.905Z,100290.59
2023-04-27T01:15:25.654Z,100292.95
2023-04-27T01:18:02.663Z,100290.89
2023-04-27T01:20:32.694Z,100292.70
2023-04-27T01:22:59.969Z,100293.33
2023-04-27T01:25:26.638Z,100293.89
2023-04-27T01:27:54.510Z,100293.71
2023-04-27T01:30:22.649Z,100295.04
2023-04-27T01:32:50.121Z,100296.03
2023-04-27T01:35:18.958Z,100295.58
2023-04-27T01:37:47.644Z,100296.52
2023-04-27T01:40:15.001Z,100294.73
2023-04-27T01:42:42.142Z,100294.98
2023-04-27T01:45:09.611Z,100294.48
2023-04-27T01:47:36.402Z,100301.04
2023-04-27T01:50:04.044Z,100299.58
2023-04-27T01:52:30.631Z,100301.12
2023-04-27T01:54:57.302Z,100300.41
2023-04-27T01:57:23.925Z,100301.05
2023-04-27T01:59:50.680Z,100307.16
2023-04-27T02:02:17.293Z,100304.98
2023-04-27T02:04:45.243Z,100305.59
2023-04-27T02:07:12.316Z,100306.27
2023-04-27T02:09:38.891Z,100306.91
2023-04-27T02:12:06.125Z,100304.01
2023-04-27T02:14:32.943Z,100305.63
2023-04-27T02:17:06.237Z,100308.40
2023-04-27T02:19:32.865Z,100306.63
2023-04-27T02:21:59.459Z,100305.40
2023-04-27T02:24:26.953Z,100308.06
2023-04-27T02:26:53.578Z,100306.88
2023-04-27T02:29:20.194Z,100307.14
2023-04-27T02:31:47.540Z,100305.71
2023-04-27T02:34:14.131Z,100308.70
2023-04-27T02:36:40.767Z,100307.62
2023-04-27T02:39:09.150Z,100308.80
2023-04-27T02:41:37.049Z,100308.95
2023-04-27T02:44:03.646Z,100313.13
2023-04-27T02:46:30.835Z,100314.81
2023-04-27T02:48:57.518Z,100316.44
2023-04-27T02:51:24.100Z,100316.48
2023-04-27T02:53:53.120Z,100318.65
2023-04-27T02:56:19.718Z,100317.34
2023-04-27T02:58:48.015Z,100322.38
2023-04-27T03:01:17.292Z,100325.59
2023-04-27T03:03:48.145Z,100330.29
2023-04-27T03:06:15.342Z,100325.91
2023-04-27T03:08:42.260Z,100327.16
2023-04-27T03:11:09.553Z,100330.34
2023-04-27T03:13:41.889Z,100336.44
2023-04-27T03:16:11.840Z,100334.20
2023-04-27T03:18:39.876Z,100339.73
2023-04-27T03:21:07.150Z,100339.09
2023-04-27T03:23:33.974Z,100339.69
2023-04-27T03:26:01.190Z,100340.84
2023-04-27T03:28:27.949Z,100340.89
2023-04-27T03:30:55.406Z,100345.16
2023-04-27T03:33:22.318Z,100343.83
2023-04-27T03:35:56.552Z,100343.69
2023-04-27T03:38:23.992Z,100343.08
2023-04-27T03:40:50.846Z,100341.27
2023-04-27T03:43:18.423Z,100343.43
2023-04-27T03:45:45.058Z,100345.30
2023-04-27T03:48:11.896Z,100344.11
2023-04-27T03:50:38.754Z,100345.70
2023-04-27T03:53:05.366Z,100348.66
2023-04-27T03:55:32.100Z,100351.40
2023-04-27T03:57:58.774Z,100351.11
2023-04-27T04:00:25.386Z,100354.58
2023-04-27T04:02:53.415Z,100357.80
2023-04-27T04:05:20.557Z,100359.80
2023-04-27T04:07:48.967Z,100358.92
2023-04-27T04:10:15.640Z,100359.84
2023-04-27T04:12:42.523Z,100362.79
2023-04-27T04:15:09.390Z,100358.77
2023-04-27T04:17:36.688Z,100359.52
2023-04-27T04:20:08.008Z,100365.06
2023-04-27T04:22:34.621Z,100365.01
2023-04-27T04:25:01.397Z,100367.86
2023-04-27T04:27:28.175Z,100367.21
2023-04-27T04:29:55.617Z,100372.15
2023-04-27T04:32:23.176Z,100375.95
2023-04-27T04:34:52.700Z,100377.81
2023-04-27T04:37:20.139Z,100375.48
2023-04-27T04:39:46.730Z,100374.23
2023-04-27T04:42:13.581Z,100378.61
2023-04-27T04:44:43.293Z,100378.04
2023-04-27T04:47:10.294Z,100385.41
2023-04-27T04:49:36.971Z,100386.79
2023-04-27T04:52:06.453Z,100392.12
2023-04-27T04:54:32.997Z,100399.19
2023-04-27T04:57:00.944Z,100396.21
2023-04-27T04:59:29.037Z,100398.67
2023-04-27T05:01:58.243Z,100402.87
2023-04-27T05:04:25.158Z,100401.39
2023-04-27T05:06:53.076Z,100399.86
2023-04-27T05:09:19.638Z,100397.02
2023-04-27T05:11:46.350Z,100394.39
2023-04-27T05:14:12.912Z,100396.80
2023-04-27T05:16:39.471Z,100396.81
2023-04-27T05:19:06.074Z,100399.45
2023-04-27T05:21:33.632Z,100400.02
2023-04-27T05:24:00.735Z,100399.27
2023-04-27T05:26:27.331Z,100399.13
2023-04-27T05:28:53.862Z,100402.34
2023-04-27T05:31:20.538Z,100401.25
2023-04-27T05:33:47.151Z,100402.77
2023-04-27T05:36:13.732Z,100403.47
2023-04-27T05:38:40.586Z,100403.34
2023-04-27T05:41:07.586Z,100401.70
2023-04-27T05:43:35.163Z,100405.30
2023-04-27T05:46:01.839Z,100404.20
2023-04-27T05:48:28.488Z,100402.52
2023-04-27T05:51:02.857Z,100402.48
2023-04-27T05:53:30.210Z,100404.41
2023-04-27T05:55:59.031Z,100406.16
2023-04-27T05:58:25.962Z,100404.05
2023-04-27T06:00:53.659Z,100407.83
2023-04-27T06:03:20.641Z,100412.30
2023-04-27T06:05:47.310Z,100413.40
2023-04-27T06:08:14.017Z,100411.90
2023-04-27T06:10:41.099Z,100412.15
2023-04-27T06:13:07.627Z,100411.44
2023-04-27T06:15:34.235Z,100413.55
2023-04-27T06:18:00.815Z,100413.15
2023-04-27T06:20:27.581Z,100408.80
2023-04-27T06:22:54.479Z,100414.17
2023-04-27T06:25:24.419Z,100411.48
2023-04-27T06:27:52.693Z,100411.16
2023-04-27T06:30:19.322Z,100415.71
2023-04-27T06:32:46.044Z,100417.22
2023-04-27T06:35:12.670Z,100419.88
2023-04-27T06:37:39.258Z,100419.02
2023-04-27T06:40:07.616Z,100416.63
2023-04-27T06:42:34.859Z,100419.15
2023-04-27T06:45:01.381Z,100418.56
2023-04-27T06:47:30.860Z,100415.30
2023-04-27T06:49:57.507Z,100413.44
2023-04-27T06:52:24.107Z,100415.14
2023-04-27T06:54:50.644Z,100416.13
2023-04-27T06:57:17.314Z,100419.48
2023-04-27T06:59:43.936Z,100422.07
2023-04-27T07:02:10.905Z,100420.50
2023-04-27T07:04:38.234Z,100420.54
2023-04-27T07:07:05.052Z,100421.11
2023-04-27T07:09:31.853Z,100421.33
2023-04-27T07:11:59.029Z,100418.48
2023-04-27T07:14:26.022Z,100419.13
2023-04-27T07:16:52.640Z,100423.76
2023-04-27T07:19:19.543Z,100423.47
2023-04-27T07:21:46.228Z,100426.67
2023-04-27T07:24:12.848Z,100429.88
2023-04-27T07:26:39.657Z,100427.61
2023-04-27T07:29:14.755Z,100428.12
2023-04-27T07:31:52.184Z,100420.52
2023-04-27T07:34:18.922Z,100418.92
2023-04-27T07:36:45.807Z,100417.92
2023-04-27T07:39:12.794Z,100416.21
2023-04-27T07:41:39.799Z,100415.11
2023-04-27T07:44:06.535Z,100419.05
2023-04-27T07:46:33.182Z,100423.10
2023-04-27T07:49:00.218Z,100417.14
2023-04-27T07:51:28.870Z,100415.94
2023-04-27T07:53:56.403Z,100412.77
2023-04-27T07:56:22.978Z,100419.37
2023-04-27T07:58:49.496Z,100413.75
2023-04-27T08:01:16.916Z,100412.89
2023-04-27T08:03:44.777Z,100413.09
2023-04-27T08:06:12.156Z,100420.85
2023-04-27T08:08:38.981Z,100417.40
2023-04-27T08:11:09.729Z,100419.95
2023-04-27T08:13:36.866Z,100424.04
2023-04-27T08:16:03.699Z,100418.13
2023-04-27T08:18:30.503Z,100415.91
2023-04-27T08:20:57.170Z,100417.46
2023-04-27T08:23:28.413Z,100418.77
2023-04-27T08:25:55.182Z,100418.17
2023-04-27T08:28:23.330Z,100416.79
2023-04-27T08:30:50.099Z,100414.66
2023-04-27T08:33:16.886Z,100418.98
2023-04-27T08:35:43.565Z,100417.17
2023-04-27T08:38:10.232Z,100423.10
2023-04-27T08:40:41.714Z,100423.54
2023-04-27T08:43:08.367Z,100426.17
2023-04-27T08:45:34.907Z,100416.48
2023-04-27T08:48:01.516Z,100421.04
2023-04-27T08:50:28.658Z,100420.17
2023-04-27T08:52:55.262Z,100420.15
2023-04-27T08:55:22.110Z,100419.15
2023-04-27T08:57:56.272Z,100421.06
2023-04-27T09:00:24.746Z,100417.50
2023-04-27T09:02:51.873Z,100421.85
2023-04-27T09:05:20.113Z,100428.84
2023-04-27T09:08:16.408Z,100426.98
2023-04-27T09:10:53.278Z,100423.70
2023-04-27T09:13:19.816Z,100425.42
2023-04-27T09:15:51.821Z,100425.98
2023-04-27T09:18:21.057Z,100429.91
2023-04-27T09:20:52.433Z,100436.09
2023-04-27T09:23:32.887Z,100433.97
2023-04-27T09:26:01.552Z,100437.24
2023-04-27T09:28:30.663Z,100450.38
2023-04-27T09:31:02.035Z,100449.97
2023-04-27T09:33:31.624Z,100452.65
2023-04-27T09:35:59.964Z,100449.08
2023-04-27T09:38:27.175Z,100453.33
2023-04-27T09:40:54.937Z,100453.01
2023-04-27T09:43:22.125Z,100450.90
2023-04-27T09:45:50.165Z,100446.78
2023-04-27T09:48:18.548Z,100444.89
2023-04-27T09:50:46.577Z,100445.07
2023-04-27T09:53:15.790Z,100446.77
2023-04-27T09:56:35.181Z,100448.05
2023-04-27T09:59:27.045Z,100443.08
2023-04-27T10:02:02.796Z,100447.78
2023-04-27T10:04:31.929Z,100445.09
2023-04-27T10:07:00.039Z,100444.70
2023-04-27T10:09:30.499Z,100450.15
2023-04-27T10:12:15.659Z,100455.83
2023-04-27T10:14:53.567Z,100456.27
2023-04-27T10:17:27.114Z,100452.33
2023-04-27T10:19:58.228Z,100455.60
2023-04-27T10:22:40.599Z,100455.98
2023-04-27T10:25:17.912Z,100462.47
2023-04-27T10:27:49.870Z,100460.08
2023-04-27T10:30:18.877Z,100455.04
2023-04-27T10:32:58.018Z,100452.71
2023-04-27T10:35:36.788Z,100450.14
2023-04-27T10:38:11.224Z,100447.76
2023-04-27T10:40:38.718Z,100444.10
2023-04-27T10:43:13.228Z,100442.02
2023-04-27T10:45:41.339Z,100442.80
2023-04-27T10:48:08.773Z,100433.30
2023-04-27T10:50:35.834Z,100432.57
2023-04-27T10:53:05.376Z,100439.73
2023-04-27T10:55:33.201Z,100434.45
2023-04-27T10:58:01.563Z,100436.50
2023-04-27T11:00:33.312Z,100443.03
2023-04-27T11:03:14.582Z,100440.71
2023-04-27T11:05:43.094Z,100442.16
2023-04-27T11:08:12.163Z,100445.55
2023-04-27T11:10:47.402Z,100453.12
2023-04-27T11:13:16.109Z,100452.75
2023-04-27T11:15:56.653Z,100454.63
2023-04-27T11:18:31.753Z,100452.38
2023-04-27T11:21:13.426Z,100450.75
2023-04-27T11:23:41.245Z,100454.46
2023-04-27T11:26:21.570Z,100452.57
2023-04-27T11:29:12.548Z,100459.50
2023-04-27T11:31:47.385Z,100462.60
2023-04-27T11:34:19.688Z,100462.19
2023-04-27T11:39:36.562Z,100463.63
2023-04-27T11:42:23.495Z,100466.48
2023-04-27T11:44:59.291Z,100464.27
2023-04-27T11:47:31.201Z,100465.73
2023-04-27T11:50:04.645Z,100461.30
2023-04-27T11:52:36.277Z,100463.71
2023-04-27T11:55:04.713Z,100466.85
2023-04-27T11:57:33.654Z,100469.53
2023-04-27T12:00:02.569Z,100469.30
2023-04-27T12:02:40.707Z,100471.34
2023-04-27T12:05:09.212Z,100469.38
2023-04-27T12:07:36.432Z,100472.14
2023-04-27T12:10:03.398Z,100472.06
2023-04-27T12:12:30.026Z,100474.01
2023-04-27T12:14:56.858Z,100469.67
2023-04-27T12:17:23.529Z,100468.56
2023-04-27T12:19:50.256Z,100467.73
2023-04-27T12:22:16.883Z,100464.38
2023-04-27T12:24:43.503Z,100466.58
2023-04-27T12:27:10.105Z,100467.55
2023-04-27T12:29:37.600Z,100462.33
2023-04-27T12:32:04.670Z,100461.48
2023-04-27T12:34:32.357Z,100466.05
2023-04-27T12:36:59.215Z,100464.83
2023-04-27T12:39:26.014Z,100460.77
2023-04-27T12:41:54.165Z,100465.64
2023-04-27T12:44:21.915Z,100465.94
2023-04-27T12:46:48.903Z,100462.97
2023-04-27T12:49:15.906Z,100465.83
2023-04-27T12:51:43.280Z,100465.84
2023-04-27T12:54:11.421Z,100459.65
2023-04-27T12:56:38.289Z,100456.61
2023-04-27T12:59:06.257Z,100461.26
2023-04-27T13:01:33.434Z,100464.29
2023-04-27T13:04:02.996Z,100459.22
2023-04-27T13:06:32.200Z,100460.95
2023-04-27T13:08:59.780Z,100458.86
2023-04-27T13:11:27.234Z,100461.23
2023-04-27T13:13:55.335Z,100455.90
2023-04-27T13:16:25.177Z,100460.81
2023-04-27T13:18:53.847Z,100463.09
2023-04-27T13:21:21.051Z,100471.27
2023-04-27T13:23:48.147Z,100481.18
2023-04-27T13:26:16.574Z,100479.05
2023-04-27T13:28:43.409Z,100479.80
2023-04-27T13:31:11.123Z,100478.52
2023-04-27T13:33:43.267Z,100481.80
2023-04-27T13:36:11.509Z,100480.41
2023-04-27T13:38:38.493Z,100480.26
2023-04-27T13:41:06.605Z,100479.64
2023-04-27T13:43:33.507Z,100480.50
2023-04-27T13:46:01.587Z,100482.02
2023-04-27T13:48:29.867Z,100482.16
2023-04-27T13:50:56.962Z,100483.60
2023-04-27T13:53:25.920Z,100486.12
2023-04-27T13:55:57.524Z,100489.38
2023-04-27T13:58:26.277Z,100484.21
2023-04-27T14:00:53.919Z,100490.27
2023-04-27T14:03:21.629Z,100497.23
2023-04-27T14:05:51.012Z,100493.01
2023-04-27T14:08:18.425Z,100493.52
2023-04-27T14:10:46.012Z,100490.02
2023-04-27T14:13:13.262Z,100488.80
2023-04-27T14:15:40.427Z,100490.52
2023-04-27T14:18:08.435Z,100488.98
2023-04-27T14:20:36.437Z,100483.98
2023-04-27T14:23:04.999Z,100486.71
2023-04-27T14:25:35.183Z,100481.47
2023-04-27T14:28:05.075Z,100481.52
2023-04-27T14:30:35.462Z,100486.63
2023-04-27T14:33:02.702Z,100492.60
2023-04-27T14:35:29.621Z,100495.13
2023-04-27T14:38:01.906Z,100498.34
2023-04-27T14:40:32.569Z,100501.45
2023-04-27T14:42:59.767Z,100504.34
2023-04-27T14:45:36.720Z,100504.77
2023-04-27T14:48:07.203Z,100508.33
2023-04-27T14:50:34.671Z,100510.35
2023-04-27T14:53:02.227Z,100504.67
2023-04-27T14:55:29.561Z,100506.39
2023-04-27T14:57:56.224Z,100503.52
2023-04-27T15:00:22.934Z,100507.92
2023-04-27T15:02:49.741Z,100506.90
2023-04-27T15:05:16.448Z,100511.35
2023-04-27T15:07:43.132Z,100511.32
2023-04-27T15:10:10.069Z,100510.41
2023-04-27T15:12:36.706Z,100511.77
2023-04-27T15:15:03.681Z,100513.49
2023-04-27T15:17:30.617Z,100519.20
2023-04-27T15:19:57.254Z,100519.16
2023-04-27T15:22:24.003Z,100517.41
2023-04-27T15:24:51.259Z,100516.85
2023-04-27T15:27:17.909Z,100520.88
2023-04-27T15:29:44.651Z,100520.47
2023-04-27T15:32:11.718Z,100520.61
2023-04-27T15:34:38.837Z,100523.38
2023-04-27T15:37:05.686Z,100522.41
2023-04-27T15:39:32.306Z,100519.87
2023-04-27T15:41:59.802Z,100518.70
2023-04-27T15:44:27.167Z,100513.84
2023-04-27T15:46:54.393Z,100519.01
2023-04-27T15:49:21.734Z,100516.20
2023-04-27T15:51:49.108Z,100517.77
2023-04-27T15:54:17.728Z,100520.31
2023-04-27T15:56:44.488Z,100517.92
2023-04-27T15:59:12.193Z,100517.48
2023-04-27T16:01:39.114Z,100518.72
2023-04-27T16:04:06.397Z,100522.54
2023-04-27T16:06:34.921Z,100528.99
2023-04-27T16:09:03.535Z,100526.80
2023-04-27T16:11:31.714Z,100528.92
2023-04-27T16:13:59.599Z,100536.23
2023-04-27T16:16:27.085Z,100540.27
2023-04-27T16:18:53.951Z,100539.98
2023-04-27T16:21:20.551Z,100545.16
2023-04-27T16:23:47.515Z,100548.83
2023-04-27T16:26:14.371Z,100547.80
2023-04-27T16:28:41.532Z,100555.42
2023-04-27T16:31:08.301Z,100556.58
2023-04-27T16:33:34.998Z,100555.82
2023-04-27T16:36:01.663Z,100556.93
2023-04-27T16:38:28.250Z,100557.08
2023-04-27T16:40:56.073Z,100559.63
2023-04-27T16:43:22.972Z,100563.17
2023-04-27T16:45:49.803Z,100563.20
2023-04-27T16:48:17.651Z,100567.13
2023-04-27T16:50:44.735Z,100563.80
2023-04-27T16:53:19.831Z,100564.88
2023-04-27T16:55:46.929Z,100565.63
2023-04-27T16:58:13.831Z,100570.50
2023-04-27T17:00:41.061Z,100566.38
2023-04-27T17:03:07.892Z,100568.52
2023-04-27T17:05:34.930Z,100574.91
2023-04-27T17:08:03.061Z,100573.24
2023-04-27T17:10:32.192Z,100570.33
2023-04-27T17:12:59.324Z,100573.89
2023-04-27T17:15:28.846Z,100573.73
2023-04-27T17:17:56.295Z,100575.83
2023-04-27T17:20:23.122Z,100576.73
2023-04-27T17:22:49.741Z,100572.89
2023-04-27T17:25:16.904Z,100574.38
2023-04-27T17:27:43.493Z,100579.23
2023-04-27T17:30:10.868Z,100580.60
2023-04-27T17:32:37.780Z,100581.36
2023-04-27T17:35:05.661Z,100587.02
2023-04-27T17:37:32.669Z,100588.92
2023-04-27T17:39:59.451Z,100588.67
2023-04-27T17:42:26.232Z,100586.77
2023-04-27T17:44:52.869Z,100589.77
2023-04-27T17:47:22.265Z,100593.75
2023-04-27T17:49:49.067Z,100591.31
2023-04-27T17:52:16.063Z,100590.31
2023-04-27T17:54:43.493Z,100593.64
2023-04-27T17:57:10.100Z,100593.80
2023-04-27T17:59:37.019Z,100596.82
2023-04-27T18:02:03.699Z,100601.90
2023-04-27T18:04:30.547Z,100605.23
2023-04-27T18:06:57.513Z,100608.52
2023-04-27T18:09:26.276Z,100617.03
2023-04-27T18:11:53.085Z,100609.87
2023-04-27T18:14:19.737Z,100608.34
2023-04-27T18:16:46.497Z,100613.81
2023-04-27T18:19:13.462Z,100614.73
2023-04-27T18:21:40.684Z,100617.61
2023-04-27T18:24:08.623Z,100614.78
2023-04-27T18:26:36.979Z,100620.10
2023-04-27T18:29:03.686Z,100624.40
2023-04-27T18:31:30.673Z,100625.96
2023-04-27T18:33:57.661Z,100628.38
2023-04-27T18:36:27.624Z,100626.84
2023-04-27T18:38:54.935Z,100623.16
2023-04-27T18:41:21.544Z,100624.68
2023-04-27T18:43:48.219Z,100629.84
2023-04-27T18:46:14.998Z,100629.98
2023-04-27T18:48:42.274Z,100628.92
2023-04-27T18:51:09.151Z,100632.35
2023-04-27T18:53:35.937Z,100633.54
2023-04-27T18:56:03.189Z,100638.25
2023-04-27T18:58:30.104Z,100642.19
2023-04-27T19:00:56.852Z,100641.17
2023-04-27T19:03:24.261Z,100639.31
2023-04-27T19:05:52.571Z,100640.40
2023-04-27T19:08:19.353Z,100637.33
2023-04-27T19:10:46.227Z,100640.51
2023-04-27T19:13:12.924Z,100643.48
2023-04-27T19:15:39.708Z,100639.75
2023-04-27T19:18:11.354Z,100642.30
2023-04-27T19:20:40.827Z,100640.81
2023-04-27T19:23:09.451Z,100640.48
2023-04-27T19:25:36.727Z,100639.98
2023-04-27T19:28:04.582Z,100638.46
2023-04-27T19:30:31.415Z,100642.72
2023-04-27T19:32:58.213Z,100640.92
2023-04-27T19:35:26.548Z,100641.36
2023-04-27T19:37:53.395Z,100642.15
2023-04-27T19:40:20.002Z,100641.00
2023-04-27T19:42:48.064Z,100642.26
2023-04-27T19:45:15.499Z,100641.92
2023-04-27T19:47:42.265Z,100646.28
2023-04-27T19:50:09.680Z,100648.14
2023-04-27T19:52:36.905Z,100649.16
2023-04-27T19:55:04.451Z,100649.63
2023-04-27T19:57:31.479Z,100647.83
2023-04-27T19:59:58.146Z,100649.87
2023-04-27T20:02:25.066Z,100650.45
2023-04-27T20:04:52.151Z,100647.94
2023-04-27T20:07:18.976Z,100650.89
2023-04-27T20:09:45.680Z,100655.44
2023-04-27T20:12:28.910Z,100650.74
2023-04-27T20:14:59.173Z,100649.77
2023-04-27T20:17:27.444Z,100650.14
2023-04-27T20:19:56.301Z,100651.70
2023-04-27T20:22:23.923Z,100653.17
2023-04-27T20:24:50.899Z,100653.88
2023-04-27T20:27:18.128Z,100656.43
2023-04-27T20:29:46.718Z,100655.23
2023-04-27T20:32:13.501Z,100653.63
2023-04-27T20:34:40.101Z,100656.23
2023-04-27T20:37:07.847Z,100657.17
2023-04-27T20:39:35.156Z,100659.49
2023-04-27T20:42:02.183Z,100661.87
2023-04-27T20:44:29.030Z,100663.17
2023-04-27T20:46:56.248Z,100667.40
2023-04-27T20:49:31.895Z,100667.29
2023-04-27T20:52:01.893Z,100673.60
2023-04-27T20:54:31.094Z,100672.00
2023-04-27T20:56:58.067Z,100671.50
2023-04-27T20:59:25.215Z,100673.23
2023-04-27T21:01:52.215Z,100674.73
2023-04-27T21:04:19.293Z,100674.11
2023-04-27T21:06:46.441Z,100673.94
2023-04-27T21:09:13.176Z,100676.02
2023-04-27T21:11:40.039Z,100677.39
2023-04-27T21:14:07.039Z,100677.59
2023-04-27T21:16:33.942Z,100685.41
2023-04-27T21:19:00.925Z,100685.36
2023-04-27T21:21:27.839Z,100683.57
2023-04-27T21:24:04.209Z,100685.76
2023-04-27T21:26:42.537Z,100686.86
2023-04-27T21:29:09.122Z,100685.41
2023-04-27T21:31:35.969Z,100685.33
2023-04-27T21:34:05.800Z,100692.80
2023-04-27T21:36:32.372Z,100693.56
2023-04-27T21:38:58.906Z,100697.85
2023-04-27T21:41:26.229Z,100697.63
2023-04-27T21:43:52.899Z,100697.39
2023-04-27T21:46:19.665Z,100696.10
2023-04-27T21:48:46.334Z,100698.06
2023-04-27T21:51:14.945Z,100703.94
2023-04-27T21:53:41.697Z,100702.32
2023-04-27T21:56:08.424Z,100703.10
2023-04-27T21:58:35.077Z,100706.46
2023-04-27T22:01:01.844Z,100707.54
2023-04-27T22:03:28.772Z,100713.38
2023-04-27T22:05:57.664Z,100716.20
2023-04-27T22:08:24.375Z,100719.54
2023-04-27T22:10:51.234Z,100720.55
2023-04-27T22:13:19.328Z,100719.92
2023-04-27T22:15:47.446Z,100719.80
2023-04-27T22:18:15.662Z,100719.54
2023-04-27T22:20:43.223Z,100721.11
2023-04-27T22:23:10.897Z,100721.33
2023-04-27T22:25:37.695Z,100724.67
2023-04-27T22:28:04.545Z,100724.73
2023-04-27T22:30:31.334Z,100724.45
2023-04-27T22:32:58.376Z,100727.64
2023-04-27T22:35:27.687Z,100725.70
2023-04-27T22:37:59.136Z,100728.39
2023-04-27T22:40:26.463Z,100726.72
2023-04-27T22:42:54.896Z,100725.15
2023-04-27T22:45:22.738Z,100727.80
2023-04-27T22:47:49.577Z,100725.48
2023-04-27T22:50:16.763Z,100723.58
2023-04-27T22:52:43.727Z,100722.98
2023-04-27T22:55:11.999Z,100723.21
2023-04-27T22:57:39.744Z,100725.04
2023-04-27T23:00:09.093Z,100721.24
2023-04-27T23:02:36.024Z,100722.06
2023-04-27T23:05:03.878Z,100721.41
2023-04-27T23:07:30.711Z,100723.37
2023-04-27T23:09:57.313Z,100724.50
2023-04-27T23:12:26.946Z,100727.31
2023-04-27T23:14:53.526Z,100729.08
2023-04-27T23:17:22.579Z,100727.07
2023-04-27T23:19:49.684Z,100729.50
2023-04-27T23:22:16.640Z,100730.97
2023-04-27T23:24:43.393Z,100728.32
2023-04-27T23:27:09.922Z,100727.02
2023-04-27T23:29:36.518Z,100728.77
2023-04-27T23:32:04.624Z,100727.52
2023-04-27T23:34:34.298Z,100728.71
2023-04-27T23:37:01.519Z,100728.83
2023-04-27T23:39:28.641Z,100727.69
2023-04-27T23:41:55.411Z,100724.39
2023-04-27T23:44:22.112Z,100724.13
2023-04-27T23:46:48.637Z,100731.42
2023-04-27T23:49:15.421Z,100738.18
2023-04-27T23:51:42.154Z,100738.23
2023-04-27T23:54:09.002Z,100741.25
2023-04-27T23:56:36.634Z,100747.47
2023-04-27T23:59:03.512Z,100743.91
